Time;durP1;ratioP1;P1;durP2;ratioP2;P2;SDS_P1;SDS_P2;PMS_P1;PMS_P2;Temp;Humidity;BMP_temperature;BMP_pressure;BME280_temperature;BME280_humidity;BME280_pressure;Samples;Min_cycle;Max_cycle;Signal;HPM_P1;HPM_P2
2022/05/22 00:00:55;;;;;;;13.63;6.95;;;15.50;99.90;;;15.97;78.05;101847.00;4862310;29;20047;-68
2022/05/22 00:03:24;;;;;;;9.00;6.55;;;15.50;99.90;;;15.90;77.96;101842.66;4862646;29;20125;-69
2022/05/22 00:05:52;;;;;;;8.20;5.82;;;15.40;99.90;;;15.81;78.21;101835.66;4862581;29;20471;-68
2022/05/22 00:08:21;;;;;;;8.27;5.43;;;15.30;99.90;;;15.85;78.02;101824.00;4862212;29;20557;-68
2022/05/22 00:10:50;;;;;;;5.53;4.70;;;15.40;99.90;;;15.87;77.60;101840.03;4862359;29;20123;-68
2022/05/22 00:13:22;;;;;;;4.82;4.35;;;15.40;99.90;;;15.68;77.54;101825.13;4862482;29;20632;-68
2022/05/22 00:18:36;;;;;;;9.20;5.65;;;15.30;99.90;;;15.46;77.89;101812.88;4862413;29;20056;-68
2022/05/22 00:21:05;;;;;;;12.85;7.47;;;15.10;99.90;;;15.51;77.97;101835.03;4862135;29;20049;-68
2022/05/22 00:23:34;;;;;;;14.70;8.68;;;15.10;99.90;;;15.36;77.80;101791.59;4862230;29;20127;-68
2022/05/22 00:26:02;;;;;;;12.85;7.85;;;15.10;99.90;;;15.58;77.82;101818.94;4861057;29;20081;-68
2022/05/22 00:28:32;;;;;;;19.95;8.88;;;15.20;99.90;;;15.75;78.11;101837.47;4861888;29;20495;-68
2022/05/22 00:31:00;;;;;;;20.17;9.50;;;15.20;99.90;;;15.76;78.19;101833.91;4860898;29;20388;-68
2022/05/22 00:33:29;;;;;;;18.25;9.07;;;15.30;99.90;;;15.81;77.84;101842.75;4861861;29;20136;-68
2022/05/22 00:35:57;;;;;;;21.02;9.30;;;15.30;99.90;;;15.71;77.39;101830.41;4862120;29;20073;-68
2022/05/22 00:38:29;;;;;;;16.20;8.95;;;15.40;99.90;;;15.68;76.98;101838.44;4862069;29;20038;-69
2022/05/22 00:40:57;;;;;;;18.98;9.23;;;15.30;99.90;;;15.56;77.01;101830.56;4862098;29;20109;-68
2022/05/22 00:43:28;;;;;;;10.93;7.07;;;15.20;99.90;;;15.61;77.44;101834.06;4862038;29;20113;-69
2022/05/22 00:46:00;;;;;;;6.30;5.38;;;15.10;99.90;;;15.36;77.59;101826.25;4860831;29;20081;-68
2022/05/22 00:48:29;;;;;;;63.20;5.57;;;15.00;99.90;;;14.66;77.75;101829.41;4861738;29;20463;-69
2022/05/22 00:51:03;;;;;;;6.32;5.15;;;14.40;99.90;;;14.50;78.91;101811.78;4860501;29;20078;-69
2022/05/22 00:53:37;;;;;;;16.42;8.30;;;14.20;99.90;;;14.69;79.47;101814.28;4860571;29;20098;-68
2022/05/22 00:56:10;;;;;;;13.90;7.97;;;14.20;99.90;;;14.69;80.15;101819.63;4860543;29;20113;-68
2022/05/22 00:58:39;;;;;;;11.05;6.55;;;14.20;99.90;;;14.82;80.77;101808.03;4861374;29;20492;-68
2022/05/22 01:01:09;;;;;;;9.48;5.90;;;14.30;99.90;;;14.86;80.01;101832.84;4861682;29;20081;-68
2022/05/22 01:03:38;;;;;;;7.40;5.88;;;14.40;99.90;;;15.04;79.85;101830.09;4860462;29;20094;-68
2022/05/22 01:06:09;;;;;;;10.65;7.47;;;14.60;99.90;;;14.93;79.11;101806.16;4861600;29;20074;-68
2022/05/22 01:08:39;;;;;;;13.57;7.70;;;14.60;99.90;;;14.81;79.17;101803.56;4861558;29;20045;-68
2022/05/22 01:11:13;;;;;;;6.53;5.75;;;14.60;99.90;;;14.69;79.23;101803.66;4861265;29;20095;-68
2022/05/22 01:13:47;;;;;;;8.27;4.95;;;14.50;99.90;;;14.87;78.02;101832.84;4859634;29;20152;-69
2022/05/22 01:16:17;;;;;;;5.50;4.85;;;14.50;99.90;;;14.78;77.57;101830.25;4860234;29;20062;-69
2022/05/22 01:18:50;;;;;;;4.72;4.25;;;14.40;99.90;;;14.74;77.86;101832.94;4860241;29;20061;-68
2022/05/22 01:21:21;;;;;;;4.53;3.72;;;14.40;99.90;;;14.06;77.74;101705.50;4860151;29;20061;-68
2022/05/22 01:23:52;;;;;;;23.17;4.18;;;14.30;99.90;;;14.57;78.27;101821.50;4861330;29;20092;-69
2022/05/22 01:26:33;;;;;;;6.38;4.05;;;14.10;99.90;;;14.18;78.90;101790.59;4875530;29;20144;-69
2022/05/22 01:29:14;;;;;;;4.25;3.95;;;13.90;99.90;;;14.23;79.94;101799.44;4860168;29;20523;-69
2022/05/22 01:31:43;;;;;;;4.78;4.25;;;13.80;99.90;;;14.21;79.42;101748.88;4861148;29;20046;-69
2022/05/22 01:34:12;;;;;;;4.68;4.28;;;14.00;99.90;;;14.38;78.31;101794.09;4861107;29;20057;-69
2022/05/22 01:36:41;;;;;;;4.25;3.95;;;14.00;99.90;;;14.30;77.61;101791.44;4860879;29;20492;-69
2022/05/22 01:39:11;;;;;;;3.80;3.60;;;13.90;99.90;;;13.29;77.22;101604.84;4859952;29;20089;-69
2022/05/22 01:41:50;;;;;;;10.18;4.55;;;13.80;99.90;;;13.84;78.24;101755.25;4875372;29;20061;-69
2022/05/22 01:44:21;;;;;;;4.93;4.53;;;13.70;99.90;;;13.93;79.19;101738.38;4875272;29;20049;-68
2022/05/22 01:46:49;;;;;;;4.32;3.95;;;13.70;99.90;;;14.20;79.48;101780.81;4859443;29;20050;-68
2022/05/22 01:49:18;;;;;;;4.00;3.70;;;13.70;99.90;;;13.89;79.21;101739.28;4860922;29;20046;-69
2022/05/22 01:51:47;;;;;;;4.03;3.78;;;13.70;99.90;;;14.11;79.64;101764.91;4859417;29;20057;-69
2022/05/22 01:54:16;;;;;;;3.53;3.22;;;13.70;99.90;;;14.08;79.71;101739.19;4860927;29;20057;-68
2022/05/22 01:56:46;;;;;;;;;;;13.70;99.90;;;14.16;79.75;101744.47;4859898;29;20063;-68
2022/05/22 01:59:15;;;;;;;4.25;3.95;;;13.80;99.90;;;14.24;80.34;101753.31;4859670;29;19924;-68
2022/05/22 02:01:55;;;;;;;53.00;5.68;;;13.80;99.90;;;14.30;80.69;101750.66;4859719;29;20416;-69
2022/05/22 02:04:24;;;;;;;4.10;3.80;;;13.90;99.90;;;14.22;80.53;101728.47;4860502;29;20058;-69
2022/05/22 02:09:46;;;;;;;7.05;5.10;;;13.70;99.90;;;14.34;80.49;101777.22;4859636;29;20050;-69
2022/05/22 02:12:14;;;;;;;4.63;4.18;;;13.90;99.90;;;14.33;80.22;101762.16;4859234;29;20094;-69
2022/05/22 02:14:44;;;;;;;4.38;3.60;;;13.90;99.90;;;14.24;79.40;101759.53;4875089;29;20053;-68
2022/05/22 02:17:16;;;;;;;4.68;3.95;;;13.90;99.90;;;14.24;78.92;101758.63;4859612;29;20419;-69
2022/05/22 02:19:57;;;;;;;4.90;4.60;;;13.80;99.90;;;14.15;78.72;101753.38;4859709;29;20056;-68
2022/05/22 02:22:42;;;;;;;5.32;4.82;;;13.70;99.90;;;13.84;78.38;101710.03;4860529;29;20105;-69
2022/05/22 02:25:15;;;;;;;5.97;5.38;;;13.70;99.90;;;13.97;78.78;101724.19;4861845;29;20568;-69
2022/05/22 02:27:44;;;;;;;12.77;6.50;;;13.60;99.90;;;13.92;78.33;101741.91;4863194;29;20060;-69
2022/05/22 02:30:20;;;;;;;7.32;4.93;;;13.50;99.90;;;13.70;79.98;101734.94;4863118;29;20048;-68
2022/05/22 02:32:49;;;;;;;4.63;4.22;;;13.30;99.90;;;13.79;80.73;101737.53;4862713;29;20049;-68
2022/05/22 02:35:18;;;;;;;6.97;5.82;;;13.30;99.90;;;13.85;81.59;101735.75;4863871;29;20508;-68
2022/05/22 02:37:49;;;;;;;16.88;6.03;;;13.40;99.90;;;13.72;82.17;101719.84;4864305;29;20084;-69
2022/05/22 02:40:39;;;;;;;6.25;5.28;;;13.40;99.90;;;13.90;82.33;101720.66;4864179;29;20061;-68
2022/05/22 02:43:09;;;;;;;14.65;7.28;;;13.50;99.90;;;13.85;82.04;101730.44;4864204;29;20046;-69
2022/05/22 02:45:40;;;;;;;20.38;10.13;;;13.50;99.90;;;14.07;81.87;101726.78;4862844;29;20094;-69
2022/05/22 02:48:12;;;;;;;19.17;11.20;;;13.60;99.90;;;14.15;81.74;101727.63;4862764;29;20186;-69
2022/05/22 02:50:54;;;;;;;18.08;9.05;;;13.70;99.90;;;14.17;81.37;101724.94;4863065;29;20069;-69
2022/05/22 02:53:22;;;;;;;12.48;8.95;;;13.70;99.90;;;14.05;81.06;101722.38;4862651;29;20058;-68
2022/05/22 02:56:13;;;;;;;14.25;8.73;;;13.70;99.90;;;14.20;80.61;101727.59;4863907;29;20136;-69
2022/05/22 02:59:00;;;;;;;11.40;7.63;;;13.70;99.90;;;14.17;80.41;101722.28;4863868;29;20055;-68
2022/05/22 03:01:33;;;;;;;8.77;6.95;;;13.80;99.90;;;14.30;79.89;101730.22;4862611;29;20054;-69
2022/05/22 03:04:01;;;;;;;59.03;9.65;;;13.90;99.90;;;14.20;79.67;101715.19;4863742;29;20056;-69
2022/05/22 03:06:39;;;;;;;11.90;7.60;;;13.90;99.90;;;14.24;79.90;101716.06;4862389;29;20144;-69
2022/05/22 03:09:11;;;;;;;11.70;6.50;;;13.80;99.90;;;14.24;80.13;101713.41;4862442;29;20057;-68
2022/05/22 03:11:43;;;;;;;8.02;5.97;;;13.80;99.90;;;14.17;79.95;101693.00;4862185;29;20069;-69
2022/05/22 03:14:13;;;;;;;7.75;5.60;;;13.90;99.90;;;13.96;79.43;101688.72;4862368;29;20050;-69
2022/05/22 03:16:42;;;;;;;6.25;5.65;;;13.70;99.90;;;14.14;80.13;101711.69;4877800;29;20050;-69
2022/05/22 03:19:14;;;;;;;6.68;6.07;;;13.70;99.90;;;14.21;80.55;101710.72;4862312;29;20153;-69
2022/05/22 03:21:44;;;;;;;8.10;6.33;;;13.80;99.90;;;14.34;80.71;101721.34;4863232;29;20389;-69
2022/05/22 03:24:13;;;;;;;13.90;8.15;;;13.90;99.90;;;14.37;81.07;101700.03;4877578;29;20053;-69
2022/05/22 03:26:51;;;;;;;20.35;8.85;;;13.90;99.90;;;14.39;80.61;101681.38;4862021;29;20057;-69
2022/05/22 03:29:19;;;;;;;16.85;8.90;;;14.00;99.90;;;14.43;80.73;101699.09;4862055;29;20114;-69
2022/05/22 03:31:51;;;;;;;10.77;7.75;;;14.00;99.90;;;14.50;80.46;101698.16;4861998;29;20049;-69
2022/05/22 03:34:20;;;;;;;18.67;10.18;;;14.00;99.90;;;14.61;80.03;101695.44;4861979;29;20056;-69
2022/05/22 03:36:53;;;;;;;16.52;9.45;;;14.10;99.90;;;14.63;79.96;101689.22;4861285;29;20049;-69
2022/05/22 03:39:23;;;;;;;20.67;10.18;;;14.20;99.90;;;14.04;79.42;101591.13;4862159;29;20144;-69
2022/05/22 03:41:53;;;;;;;10.65;7.40;;;14.20;99.90;;;14.53;78.58;101681.28;4863030;29;20057;-69
2022/05/22 03:44:24;;;;;;;8.60;7.00;;;14.10;99.90;;;14.23;78.28;101674.34;4861826;29;20053;-69
2022/05/22 03:46:53;;;;;;;8.70;6.78;;;13.90;99.90;;;14.19;79.65;101680.59;4862724;29;20572;-69
2022/05/22 03:49:30;;;;;;;9.68;6.93;;;13.80;99.90;;;14.26;79.72;101677.91;4861472;29;20060;-69
2022/05/22 03:51:59;;;;;;;13.07;7.38;;;13.80;99.90;;;14.14;79.52;101658.47;4861560;29;20057;-69
2022/05/22 03:54:28;;;;;;;12.02;7.22;;;13.80;99.90;;;14.29;78.93;101677.00;4861871;29;20119;-70
2022/05/22 03:57:01;;;;;;;7.32;6.63;;;13.80;99.90;;;14.18;78.63;101670.84;4861635;29;20060;-69
2022/05/22 03:59:33;;;;;;;9.85;6.80;;;13.80;99.90;;;13.45;79.43;101556.91;4861514;29;20568;-69
2022/05/22 04:02:04;;;;;;;9.30;7.40;;;13.70;99.90;;;13.95;80.00;101632.88;4861729;29;20072;-69
2022/05/22 04:04:34;;;;;;;15.15;8.30;;;13.80;99.90;;;14.30;80.29;101681.47;4861422;29;20492;-69
2022/05/22 04:07:15;;;;;;;14.13;8.45;;;13.80;99.90;;;14.39;80.38;101668.06;4861711;29;20124;-69
2022/05/22 04:09:43;;;;;;;13.10;8.32;;;14.00;99.90;;;14.41;80.18;101672.50;4861341;29;20500;-69
2022/05/22 04:12:16;;;;;;;17.15;9.25;;;14.00;99.90;;;14.45;80.48;101676.03;4861139;29;20049;-69
2022/05/22 04:14:48;;;;;;;17.95;9.85;;;14.00;99.90;;;14.47;80.36;101668.91;4861375;29;20539;-69
2022/05/22 04:17:17;;;;;;;17.25;9.25;;;14.10;99.90;;;14.55;80.61;101680.38;4860951;29;20114;-69
2022/05/22 04:19:45;;;;;;;19.23;10.15;;;14.10;99.90;;;14.67;80.48;101664.31;4862370;29;20037;-69
2022/05/22 04:22:15;;;;;;;15.50;9.65;;;14.20;99.90;;;14.75;80.80;101683.75;4861171;29;20560;-69
2022/05/22 04:27:38;;;;;;;20.30;10.00;;;14.50;99.90;;;15.01;80.50;101671.09;4861092;29;20145;-69
2022/05/22 04:30:17;;;;;;;20.23;9.63;;;14.60;99.90;;;14.79;80.17;101610.91;4860744;29;20084;-69
2022/05/22 04:32:51;;;;;;;17.02;9.88;;;14.70;99.90;;;15.17;79.77;101664.72;4860926;29;20588;-69
2022/05/22 04:35:22;;;;;;;16.90;9.63;;;14.70;99.90;;;15.21;79.82;101668.25;4876446;29;20140;-69
2022/05/22 04:37:52;;;;;;;23.55;10.18;;;14.80;99.90;;;14.93;80.39;101643.66;4860914;29;20053;-69
2022/05/22 04:40:20;;;;;;;18.75;9.07;;;14.70;99.90;;;14.98;81.76;101668.44;4860790;29;20073;-69
2022/05/22 04:42:50;;;;;;;16.60;8.48;;;14.60;99.90;;;14.65;83.25;101634.16;4860421;29;20144;-69
2022/05/22 04:45:19;;;;;;;20.47;9.97;;;14.40;99.90;;;14.85;82.99;101647.25;4860761;29;20050;-69
2022/05/22 04:48:03;;;;;;;15.80;8.48;;;14.40;99.90;;;14.95;83.17;101660.50;4859730;29;20064;-69
2022/05/22 04:50:46;;;;;;;17.40;8.48;;;14.50;99.90;;;14.99;83.02;101661.34;4860650;29;20496;-69
2022/05/22 04:53:28;;;;;;;16.08;8.93;;;14.50;99.90;;;15.00;83.29;101664.00;4860535;29;20136;-69
2022/05/22 04:56:06;;;;;;;16.25;8.75;;;14.60;99.90;;;15.06;83.03;101665.75;4860627;29;20106;-69
2022/05/22 04:58:42;;;;;;;15.02;8.57;;;14.60;99.90;;;15.04;83.58;101639.09;4860495;29;20050;-69
2022/05/22 05:01:14;;;;;;;10.93;7.22;;;14.70;99.90;;;15.36;84.08;101660.06;4860510;29;20054;-69
2022/05/22 05:03:56;;;;;;;18.73;9.27;;;14.90;99.90;;;15.29;82.99;101656.56;4860423;29;20418;-69
2022/05/22 05:06:24;;;;;;;15.25;8.88;;;14.90;99.90;;;15.26;83.37;101661.06;4860334;29;20057;-69
2022/05/22 05:08:55;;;;;;;18.02;8.88;;;14.90;99.90;;;14.90;83.92;101635.69;4860369;29;20052;-69
2022/05/22 05:11:28;;;;;;;23.55;9.82;;;14.70;99.90;;;14.93;83.72;101662.28;4860102;29;20101;-69
2022/05/22 05:14:06;;;;;;;17.42;9.40;;;14.60;99.90;;;14.93;84.14;101664.06;4861505;29;20045;-69
2022/05/22 05:16:34;;;;;;;19.87;8.73;;;14.50;99.90;;;15.01;83.99;101665.78;4860124;29;20055;-69
2022/05/22 05:19:12;;;;;;;22.65;9.80;;;14.60;99.90;;;15.05;84.06;101667.50;4860188;29;20041;-69
2022/05/22 05:21:46;;;;;;;22.73;9.98;;;14.70;99.90;;;14.86;83.89;101639.28;4861389;29;20049;-69
2022/05/22 05:24:17;;;;;;;22.00;10.63;;;14.70;99.90;;;15.18;83.70;101681.56;4860181;29;20058;-69
2022/05/22 05:26:45;;;;;;;20.92;11.40;;;14.80;99.90;;;15.15;83.64;101647.88;4860352;29;20129;-69
2022/05/22 05:29:17;;;;;;;19.85;11.30;;;14.90;99.90;;;15.44;83.35;101682.22;4860114;29;20408;-69
2022/05/22 05:31:46;;;;;;;20.38;12.00;;;15.00;99.90;;;15.60;83.57;101685.59;4860092;29;20053;-69
2022/05/22 05:34:16;;;;;;;18.85;9.98;;;15.20;99.90;;;15.69;83.42;101685.50;4859838;29;20053;-69
2022/05/22 05:36:53;;;;;;;19.63;11.50;;;15.30;99.90;;;15.78;82.97;101691.59;4859908;29;20057;-69
2022/05/22 05:39:32;;;;;;;19.20;10.85;;;15.40;99.90;;;16.06;82.64;101690.34;4861188;29;20049;-69
2022/05/22 05:42:20;;;;;;;22.00;10.90;;;15.60;99.90;;;16.29;81.82;101687.34;4860646;29;20141;-69
2022/05/22 05:44:51;;;;;;;18.25;10.77;;;15.90;99.90;;;16.47;81.42;101687.06;4860837;29;20136;-69
2022/05/22 05:47:29;;;;;;;19.25;11.73;;;16.10;99.90;;;16.66;81.10;101682.34;4859720;29;20082;-69
2022/05/22 05:50:36;;;;;;;20.23;9.85;;;16.30;99.90;;;16.15;80.30;101603.88;4853583;29;20057;-69
2022/05/22 05:53:05;;;;;;;15.25;9.32;;;16.40;99.90;;;16.79;80.75;101682.13;4860989;29;20177;-69
2022/05/22 05:55:42;;;;;;;19.25;9.40;;;16.50;99.90;;;16.87;79.89;101679.31;4860996;29;20050;-69
2022/05/22 05:58:42;;;;;;;19.15;10.13;;;16.60;99.90;;;16.94;80.23;101680.94;4859302;29;20132;-69
2022/05/22 06:01:18;;;;;;;16.58;9.88;;;16.60;99.90;;;16.69;78.59;101608.34;4859672;29;20412;-69
2022/05/22 06:03:47;;;;;;;18.02;9.27;;;16.70;99.90;;;16.87;77.98;101634.75;4859568;29;20067;-69
2022/05/22 06:06:16;;;;;;;20.17;9.63;;;16.80;99.90;;;17.29;77.96;101675.84;4859495;29;20050;-69
2022/05/22 06:08:45;;;;;;;18.58;9.45;;;16.90;99.90;;;17.35;78.32;101674.84;4859443;29;20488;-69
2022/05/22 06:11:32;;;;;;;15.35;8.63;;;17.10;99.90;;;17.48;78.40;101679.97;4860148;29;20578;-69
2022/05/22 06:14:23;;;;;;;20.25;8.27;;;17.10;99.90;;;17.53;76.74;101667.41;4855132;29;20474;-69
2022/05/22 06:16:53;;;;;;;14.10;7.18;;;17.40;99.90;;;17.50;76.98;101669.25;4859282;29;20045;-70
2022/05/22 06:22:05;;;;;;;18.23;7.38;;;17.30;99.90;;;17.77;75.09;101679.38;4860134;29;20054;-69
2022/05/22 06:24:35;;;;;;;17.03;6.63;;;17.50;99.90;;;17.80;73.57;101674.84;4859369;29;20091;-69
2022/05/22 06:27:22;;;;;;;13.55;5.85;;;17.50;99.90;;;17.90;69.15;101684.44;4860387;29;20069;-69
2022/05/22 06:30:18;;;;;;;13.93;5.95;;;17.60;99.90;;;17.86;68.79;101682.75;4860280;29;20053;-69
2022/05/22 06:33:12;;;;;;;16.20;6.13;;;17.60;99.90;;;18.08;68.32;101682.28;4860240;29;20067;-69
2022/05/22 06:36:08;;;;;;;17.20;6.38;;;17.80;99.90;;;17.86;67.30;101684.53;4859299;29;20060;-70
2022/05/22 06:42:05;;;;;;;12.52;6.38;;;17.60;99.90;;;17.75;67.11;101682.06;4860049;29;20065;-69
2022/05/22 06:44:58;;;;;;;15.20;6.82;;;17.50;99.90;;;17.94;67.33;101693.31;4859530;29;20412;-70
2022/05/22 06:47:56;;;;;;;12.93;6.25;;;17.60;99.90;;;17.90;67.53;101672.88;4859304;29;20404;-70
2022/05/22 06:50:34;;;;;;;16.23;7.38;;;17.70;99.90;;;17.92;67.17;101674.56;4860466;29;20061;-69
2022/05/22 06:53:32;;;;;;;22.40;6.85;;;17.80;99.90;;;18.00;66.34;101688.69;4809679;29;20059;-69
2022/05/22 06:56:35;;;;;;;16.45;6.53;;;17.80;99.90;;;18.30;66.97;101691.59;4859212;29;20053;-69
2022/05/22 06:59:24;;;;;;;13.25;6.40;;;18.00;99.90;;;18.46;66.88;101696.59;4859929;29;20072;-70
2022/05/22 07:02:13;;;;;;;13.52;6.97;;;18.20;99.90;;;17.93;67.08;101664.75;4859957;29;20089;-69
2022/05/22 07:05:00;;;;;;;13.80;6.78;;;17.90;99.90;;;17.99;66.96;101686.03;4860037;29;20154;-69
2022/05/22 07:07:46;;;;;;;13.05;7.10;;;17.80;99.90;;;18.06;66.79;101687.66;4859135;29;20049;-69
2022/05/22 07:13:44;;;;;;;17.15;7.13;;;17.80;99.90;;;18.32;66.44;101679.03;4862251;29;20141;-69
2022/05/22 07:16:32;;;;;;;18.48;7.38;;;18.00;99.90;;;18.23;66.33;101680.16;4862361;29;20174;-69
2022/05/22 07:19:17;;;;;;;17.25;6.82;;;17.90;99.90;;;18.55;66.26;101679.41;4862126;29;20049;-69
2022/05/22 07:21:59;;;;;;;17.48;6.68;;;18.20;99.90;;;18.68;64.99;101675.50;4862235;29;20077;-69
2022/05/22 07:24:52;;;;;;;13.52;6.93;;;18.40;99.90;;;18.52;64.84;101682.19;4857904;29;20062;-69
2022/05/22 07:27:41;;;;;;;;;;;18.30;99.90;;;18.63;64.77;101678.31;4843742;29;20641;-69
2022/05/22 07:30:30;;;;;;;12.40;5.80;;;18.40;99.90;;;18.71;63.17;101683.50;4862452;29;19931;-69
2022/05/22 07:33:14;;;;;;;14.57;7.22;;;18.50;99.90;;;18.63;63.85;101672.97;4861588;29;20066;-78
2022/05/22 07:35:56;;;;;;;18.65;6.65;;;18.40;99.90;;;18.55;64.10;101650.81;4862875;29;20515;-69
2022/05/22 07:38:59;;;;;;;16.27;6.22;;;18.40;99.90;;;18.63;63.03;101630.06;4823859;29;20058;-66
2022/05/22 07:42:08;;;;;;;14.50;6.63;;;18.50;99.90;;;18.93;62.71;101658.75;4849057;29;20488;-70
2022/05/22 07:44:55;;;;;;;14.57;6.13;;;18.60;99.90;;;18.93;61.30;101639.09;4862638;29;20064;-69
2022/05/22 07:47:42;;;;;;;13.32;5.03;;;18.70;99.90;;;18.71;61.09;101635.25;4861564;29;20065;-69
2022/05/22 07:50:21;;;;;;;11.65;5.20;;;18.60;99.90;;;18.87;58.36;101663.44;4862622;29;20223;-69
2022/05/22 07:53:11;;;;;;;13.25;5.72;;;18.60;99.90;;;19.21;58.44;101652.66;4861428;29;20065;-70
2022/05/22 07:55:55;;;;;;;9.70;5.20;;;18.80;99.90;;;19.19;58.26;101655.41;4861094;29;20403;-68
2022/05/22 07:58:45;;;;;;;9.32;4.95;;;18.80;99.90;;;19.46;56.46;101654.66;4861934;29;20054;-69
2022/05/22 08:01:32;;;;;;;15.07;5.80;;;19.20;99.90;;;19.70;57.57;101648.56;4862157;29;20053;-70
2022/05/22 08:04:04;;;;;;;11.68;5.95;;;19.50;99.90;;;19.80;55.04;101635.78;4862433;29;20050;-68
2022/05/22 08:06:59;;;;;;;12.98;5.38;;;19.70;99.90;;;20.15;54.80;101656.19;4859863;29;20085;-69
2022/05/22 08:09:43;;;;;;;11.45;5.20;;;19.90;99.90;;;20.27;54.88;101656.72;4860916;29;20053;-68
2022/05/22 08:12:12;;;;;;;9.30;4.60;;;20.10;99.90;;;20.04;53.28;101653.81;4860818;29;20081;-67
2022/05/22 08:14:42;;;;;;;11.60;5.07;;;19.80;99.90;;;19.60;53.42;101632.81;4860576;29;20508;-66
2022/05/22 08:17:10;;;;;;;7.60;4.72;;;19.60;99.90;;;19.14;53.42;101594.75;4860984;29;20053;-63
2022/05/22 08:19:42;;;;;;;9.38;4.93;;;19.20;99.90;;;19.21;52.94;101620.47;4862189;29;20132;-64
2022/05/22 08:22:34;;;;;;;10.00;5.10;;;19.10;99.90;;;19.26;52.26;101597.09;4861410;29;20061;-63
2022/05/22 08:25:21;;;;;;;12.85;6.00;;;19.00;99.90;;;19.75;54.88;101597.44;4860917;29;20049;-64
2022/05/22 08:27:52;;;;;;;;;;;19.40;99.90;;;19.93;52.36;101613.00;4860882;29;20125;-64
2022/05/22 08:30:22;;;;;;;11.98;6.18;;;19.70;99.90;;;19.77;53.02;101612.59;4861893;29;20043;-64
2022/05/22 08:32:52;;;;;;;12.52;5.88;;;19.50;99.90;;;19.88;52.65;101606.88;4860607;29;20045;-65
2022/05/22 08:35:26;;;;;;;11.15;5.97;;;19.60;99.90;;;20.19;53.28;101615.75;4861566;29;20475;-64
2022/05/22 08:37:56;;;;;;;10.05;5.95;;;19.80;99.90;;;20.41;53.20;101605.19;4861513;29;20084;-63
2022/05/22 08:40:29;;;;;;;10.35;5.30;;;20.10;99.90;;;20.59;51.81;101615.34;4861731;29;20420;-64
2022/05/22 08:43:04;;;;;;;11.98;5.68;;;20.30;99.90;;;20.47;51.14;101611.25;4861868;29;20093;-67
2022/05/22 08:45:43;;;;;;;9.43;5.25;;;20.30;99.90;;;20.31;51.46;101609.09;4861911;29;20061;-67
2022/05/22 08:48:17;;;;;;;10.35;4.78;;;20.20;99.90;;;20.15;50.51;101611.38;4861483;29;20519;-69
2022/05/22 08:50:49;;;;;;;9.52;5.38;;;20.00;99.90;;;19.92;49.48;101587.03;4860442;29;20109;-69
2022/05/22 08:53:27;;;;;;;10.57;5.07;;;19.70;99.90;;;19.92;49.46;101600.47;4861500;29;20114;-70
2022/05/22 08:59:02;;;;;;;10.45;5.35;;;20.00;99.90;;;20.11;48.67;101585.53;4861243;29;20074;-64
2022/05/22 09:01:47;;;;;;;8.82;4.57;;;20.10;99.90;;;19.68;48.93;101569.91;4860014;29;20057;-64
2022/05/22 09:04:35;;;;;;;10.10;4.38;;;19.60;99.90;;;20.02;49.23;101579.56;4861398;29;20098;-66
2022/05/22 09:07:20;;;;;;;9.98;4.95;;;19.80;99.90;;;20.27;47.50;101594.91;4861466;29;20077;-65
2022/05/22 09:09:54;;;;;;;11.18;4.90;;;19.90;99.90;;;20.32;46.87;101579.53;4860994;29;20195;-64
2022/05/22 09:12:51;;;;;;;10.02;4.80;;;20.10;99.90;;;19.97;47.25;101582.44;4861304;29;20080;-68
2022/05/22 09:15:27;;;;;;;11.18;5.00;;;19.80;99.90;;;20.30;46.03;101585.88;4861194;29;20105;-63
2022/05/22 09:18:04;;;;;;;10.27;4.65;;;19.90;99.90;;;20.35;47.09;101574.03;4861428;29;20041;-66
2022/05/22 09:20:43;;;;;;;9.45;4.60;;;20.00;99.90;;;20.47;46.07;101565.56;4861317;29;20503;-66
2022/05/22 09:23:45;;;;;;;9.45;4.55;;;20.20;99.90;;;20.85;45.69;101563.34;4861142;29;20058;-66
2022/05/22 09:26:28;;;;;;;9.43;4.97;;;20.50;99.90;;;20.69;45.58;101563.88;4860983;29;20053;-67
2022/05/22 09:29:05;;;;;;;9.73;5.50;;;20.50;99.90;;;20.82;47.43;101560.75;4860904;29;20109;-64
2022/05/22 09:31:41;;;;;;;10.38;5.10;;;20.50;99.90;;;21.03;46.88;101542.06;4860610;29;20053;-64
2022/05/22 09:34:21;;;;;;;12.85;6.13;;;20.80;99.90;;;21.48;46.98;101566.41;4860296;29;20103;-67
2022/05/22 09:37:06;;;;;;;12.50;5.57;;;21.10;99.90;;;21.65;46.07;101566.63;4860806;29;20057;-65
2022/05/22 09:39:51;;;;;;;8.40;4.28;;;21.30;99.90;;;21.80;44.66;101562.44;4860946;29;20060;-66
2022/05/22 09:42:35;;;;;;;9.20;4.63;;;21.50;99.90;;;22.03;44.82;101568.69;4860664;29;20110;-65
2022/05/22 09:45:32;;;;;;;12.77;4.80;;;21.80;99.90;;;22.21;43.71;101554.47;4860518;29;20054;-67
2022/05/22 09:48:50;;;;;;;8.07;4.97;;;21.90;99.90;;;21.98;44.69;101557.25;4860541;29;20116;-68
2022/05/22 09:51:32;;;;;;;9.70;5.28;;;21.90;99.90;;;22.08;45.25;101564.03;4858216;29;20064;-67
2022/05/22 09:54:22;;;;;;;11.18;4.90;;;21.80;99.90;;;22.02;44.68;101564.25;4861128;29;20084;-65
2022/05/22 09:57:27;;;;;;;11.15;4.40;;;21.80;99.90;;;22.37;44.99;101560.13;4860502;29;20078;-65
2022/05/22 10:00:07;;;;;;;9.40;4.30;;;22.00;99.90;;;22.43;44.34;101555.31;4860624;29;20053;-66
2022/05/22 10:02:54;;;;;;;8.77;4.35;;;22.10;99.90;;;22.73;43.92;101554.97;4860422;29;20061;-65
2022/05/22 10:05:36;;;;;;;9.60;4.53;;;22.40;99.90;;;22.94;43.56;101563.00;4860786;29;20088;-67
2022/05/22 10:08:19;;;;;;;8.77;4.35;;;22.70;99.90;;;22.55;43.69;101558.47;4859216;29;20415;-67
2022/05/22 10:10:58;;;;;;;9.38;5.03;;;22.40;99.90;;;22.35;43.35;101551.22;4860290;29;20117;-63
2022/05/22 10:13:36;;;;;;;10.10;5.50;;;22.20;99.90;;;22.27;43.27;101553.34;4860581;29;20053;-64
2022/05/22 10:16:20;;;;;;;9.75;4.78;;;22.10;99.90;;;22.45;42.68;101545.34;4874816;29;20101;-66
2022/05/22 10:19:08;;;;;;;10.55;5.15;;;22.20;99.90;;;22.70;42.02;101547.03;4859424;29;20045;-63
2022/05/22 10:21:45;;;;;;;9.13;5.22;;;22.40;99.90;;;22.57;41.72;101537.72;4860538;29;20522;-63
2022/05/22 10:24:43;;;;;;;7.82;4.70;;;22.30;99.90;;;22.74;43.02;101536.06;4860332;29;20480;-67
2022/05/22 10:27:53;;;;;;;7.80;4.55;;;22.50;99.90;;;22.48;41.80;101524.59;4859242;29;20084;-66
2022/05/22 10:30:27;;;;;;;11.85;4.88;;;22.20;99.90;;;22.14;42.47;101525.16;4860436;29;20076;-67
2022/05/22 10:33:02;;;;;;;9.80;5.13;;;22.10;99.90;;;21.87;44.64;101521.78;4860340;29;20045;-63
2022/05/22 10:35:38;;;;;;;12.30;5.45;;;21.70;99.90;;;22.02;42.81;101506.78;4860012;29;20092;-62
2022/05/22 10:38:14;;;;;;;8.35;4.63;;;21.70;99.90;;;22.12;43.72;101511.75;4859338;29;20093;-62
2022/05/22 10:43:39;;;;;;;10.25;4.72;;;21.80;99.90;;;22.40;42.84;101506.03;4860401;29;20107;-63
2022/05/22 10:46:08;;;;;;;9.88;5.55;;;22.00;99.90;;;22.29;42.69;101498.44;4861317;29;20461;-64
2022/05/22 10:48:49;;;;;;;8.50;4.85;;;22.00;99.90;;;22.41;44.59;101492.50;4862553;29;20140;-63
2022/05/22 10:51:24;;;;;;;11.30;5.03;;;22.10;99.90;;;22.45;42.63;101474.38;4863470;29;20110;-64
2022/05/22 10:53:57;;;;;;;9.77;5.18;;;22.30;99.90;;;22.40;42.22;101463.78;4863559;29;20401;-64
2022/05/22 10:56:30;;;;;;;11.68;5.05;;;22.30;99.90;;;22.47;42.37;101453.63;4863766;29;20102;-64
2022/05/22 10:59:01;;;;;;;10.93;5.38;;;22.50;99.90;;;22.97;43.01;101486.44;4863516;29;20065;-62
2022/05/22 11:01:31;;;;;;;;;;;22.70;99.90;;;22.76;42.23;101495.50;4864148;29;20045;-63
2022/05/22 11:04:07;;;;;;;8.70;5.30;;;22.60;99.90;;;22.33;43.15;101488.38;4863380;29;20015;-62
2022/05/22 11:06:37;;;;;;;7.85;5.18;;;22.20;99.90;;;21.89;42.96;101438.19;4863210;29;20110;-63
2022/05/22 11:09:08;;;;;;;8.63;5.28;;;22.10;99.90;;;22.74;43.06;101492.00;4863596;29;20521;-63
2022/05/22 11:11:38;;;;;;;13.27;5.53;;;22.40;99.90;;;22.66;42.42;101492.34;4862961;29;20062;-62